sensor_id;sensor_type;location;lat;lon;timestamp;pressure;altitude;pressure_sealevel;temperature;humidity
7888;BME280;3989;48.810;9.208;2022-07-21T00:00:00;98955.63;;;18.64;100.00
7888;BME280;3989;48.810;9.208;2022-07-21T00:02:28;99068.31;;;19.36;100.00
7888;BME280;3989;48.810;9.208;2022-07-21T00:04:55;99065.25;;;19.33;100.00
7888;BME280;3989;48.810;9.208;2022-07-21T00:07:22;99050.38;;;19.24;100.00
7888;BME280;3989;48.810;9.208;2022-07-21T00:09:49;99047.47;;;19.25;100.00
7888;BME280;3989;48.810;9.208;2022-07-21T00:12:15;99050.84;;;19.21;100.00
7888;BME280;3989;48.810;9.208;2022-07-21T00:14:42;99050.53;;;19.11;100.00
7888;BME280;3989;48.810;9.208;2022-07-21T00:17:10;99003.16;;;18.72;100.00
7888;BME280;3989;48.810;9.208;2022-07-21T00:19:36;99064.38;;;19.03;100.00
7888;BME280;3989;48.810;9.208;2022-07-21T00:22:03;99064.00;;;18.99;100.00
7888;BME280;3989;48.810;9.208;2022-07-21T00:24:29;99060.69;;;18.97;100.00
7888;BME280;3989;48.810;9.208;2022-07-21T00:26:56;99067.38;;;18.95;100.00
7888;BME280;3989;48.810;9.208;2022-07-21T00:29:23;99066.72;;;18.99;100.00
7888;BME280;3989;48.810;9.208;2022-07-21T00:31:49;99077.91;;;19.03;100.00
7888;BME280;3989;48.810;9.208;2022-07-21T00:34:17;99093.44;;;19.07;100.00
7888;BME280;3989;48.810;9.208;2022-07-21T00:36:44;99089.09;;;19.06;100.00
7888;BME280;3989;48.810;9.208;2022-07-21T00:39:10;99081.78;;;19.07;100.00
7888;BME280;3989;48.810;9.208;2022-07-21T00:41:37;99076.56;;;19.12;100.00
7888;BME280;3989;48.810;9.208;2022-07-21T00:44:04;99079.38;;;19.17;100.00
7888;BME280;3989;48.810;9.208;2022-07-21T00:46:30;99082.16;;;19.10;100.00
7888;BME280;3989;48.810;9.208;2022-07-21T00:48:57;99072.03;;;19.06;100.00
7888;BME280;3989;48.810;9.208;2022-07-21T00:51:25;99073.00;;;19.11;100.00
7888;BME280;3989;48.810;9.208;2022-07-21T00:53:51;99060.31;;;19.12;100.00
7888;BME280;3989;48.810;9.208;2022-07-21T00:56:20;99045.59;;;19.08;100.00
7888;BME280;3989;48.810;9.208;2022-07-21T00:58:47;98925.44;;;18.31;100.00
7888;BME280;3989;48.810;9.208;2022-07-21T01:01:14;99051.44;;;19.05;100.00
7888;BME280;3989;48.810;9.208;2022-07-21T01:03:40;99039.13;;;18.91;100.00
7888;BME280;3989;48.810;9.208;2022-07-21T01:06:07;99073.47;;;19.08;100.00
7888;BME280;3989;48.810;9.208;2022-07-21T01:08:35;99063.09;;;19.05;100.00
7888;BME280;3989;48.810;9.208;2022-07-21T01:11:01;99073.31;;;19.03;100.00
7888;BME280;3989;48.810;9.208;2022-07-21T01:13:28;99080.16;;;19.06;100.00
7888;BME280;3989;48.810;9.208;2022-07-21T01:15:55;99069.09;;;19.07;100.00
7888;BME280;3989;48.810;9.208;2022-07-21T01:18:21;98929.94;;;18.19;100.00
7888;BME280;3989;48.810;9.208;2022-07-21T01:20:52;99076.38;;;19.07;100.00
7888;BME280;3989;48.810;9.208;2022-07-21T01:23:21;99030.06;;;18.67;100.00
7888;BME280;3989;48.810;9.208;2022-07-21T01:25:47;98885.97;;;17.69;100.00
7888;BME280;3989;48.810;9.208;2022-07-21T01:28:14;99091.34;;;18.91;100.00
7888;BME280;3989;48.810;9.208;2022-07-21T01:30:41;99090.13;;;18.87;100.00
7888;BME280;3989;48.810;9.208;2022-07-21T01:33:08;99088.94;;;18.83;100.00
7888;BME280;3989;48.810;9.208;2022-07-21T01:35:35;99053.31;;;18.68;100.00
7888;BME280;3989;48.810;9.208;2022-07-21T01:38:01;99041.44;;;18.51;100.00
7888;BME280;3989;48.810;9.208;2022-07-21T01:40:30;99097.34;;;18.75;100.00
7888;BME280;3989;48.810;9.208;2022-07-21T01:43:14;99038.41;;;18.41;100.00
7888;BME280;3989;48.810;9.208;2022-07-21T01:45:41;99094.47;;;18.70;100.00
7888;BME280;3989;48.810;9.208;2022-07-21T01:48:07;99094.63;;;18.75;100.00
7888;BME280;3989;48.810;9.208;2022-07-21T01:50:34;99106.81;;;18.84;100.00
7888;BME280;3989;48.810;9.208;2022-07-21T01:53:00;99106.13;;;18.88;100.00
7888;BME280;3989;48.810;9.208;2022-07-21T01:55:27;99012.16;;;18.23;100.00
7888;BME280;3989;48.810;9.208;2022-07-21T01:57:56;99055.34;;;18.54;100.00
7888;BME280;3989;48.810;9.208;2022-07-21T02:00:22;99131.31;;;18.89;100.00
7888;BME280;3989;48.810;9.208;2022-07-21T02:02:49;99129.25;;;18.84;100.00
7888;BME280;3989;48.810;9.208;2022-07-21T02:05:15;99150.31;;;19.01;100.00
7888;BME280;3989;48.810;9.208;2022-07-21T02:07:42;99154.31;;;18.98;100.00
7888;BME280;3989;48.810;9.208;2022-07-21T02:10:09;99139.44;;;19.07;100.00
7888;BME280;3989;48.810;9.208;2022-07-21T02:12:35;99128.16;;;19.10;100.00
7888;BME280;3989;48.810;9.208;2022-07-21T02:15:04;99116.97;;;19.07;100.00
7888;BME280;3989;48.810;9.208;2022-07-21T02:17:31;99112.63;;;19.06;100.00
7888;BME280;3989;48.810;9.208;2022-07-21T02:19:58;99082.69;;;19.01;100.00
7888;BME280;3989;48.810;9.208;2022-07-21T02:22:25;99117.06;;;19.18;100.00
7888;BME280;3989;48.810;9.208;2022-07-21T02:24:51;99112.94;;;19.16;100.00
7888;BME280;3989;48.810;9.208;2022-07-21T02:27:18;99106.91;;;19.14;100.00
7888;BME280;3989;48.810;9.208;2022-07-21T02:29:44;98904.28;;;17.85;100.00
7888;BME280;3989;48.810;9.208;2022-07-21T02:32:12;98880.41;;;17.64;100.00
7888;BME280;3989;48.810;9.208;2022-07-21T02:34:39;99121.91;;;19.10;100.00
7888;BME280;3989;48.810;9.208;2022-07-21T02:37:05;99122.28;;;19.13;100.00
7888;BME280;3989;48.810;9.208;2022-07-21T02:39:32;99091.78;;;18.88;100.00
7888;BME280;3989;48.810;9.208;2022-07-21T02:41:58;99120.03;;;19.10;100.00
7888;BME280;3989;48.810;9.208;2022-07-21T02:44:25;99112.75;;;19.11;100.00
7888;BME280;3989;48.810;9.208;2022-07-21T02:46:52;98823.25;;;17.24;100.00
7888;BME280;3989;48.810;9.208;2022-07-21T02:49:20;98908.09;;;17.77;100.00
7888;BME280;3989;48.810;9.208;2022-07-21T02:51:46;98954.75;;;18.09;100.00
7888;BME280;3989;48.810;9.208;2022-07-21T02:54:13;99112.69;;;19.17;100.00
7888;BME280;3989;48.810;9.208;2022-07-21T02:56:39;99117.06;;;19.18;100.00
7888;BME280;3989;48.810;9.208;2022-07-21T02:59:06;99123.06;;;19.20;100.00
7888;BME280;3989;48.810;9.208;2022-07-21T03:01:32;99026.69;;;18.47;100.00
7888;BME280;3989;48.810;9.208;2022-07-21T03:03:59;98914.25;;;17.84;100.00
7888;BME280;3989;48.810;9.208;2022-07-21T03:06:27;98952.13;;;18.03;100.00
7888;BME280;3989;48.810;9.208;2022-07-21T03:08:54;99058.72;;;18.68;100.00
7888;BME280;3989;48.810;9.208;2022-07-21T03:11:21;99015.13;;;18.40;100.00
7888;BME280;3989;48.810;9.208;2022-07-21T03:13:48;99106.75;;;19.09;100.00
7888;BME280;3989;48.810;9.208;2022-07-21T03:16:14;99085.34;;;18.89;100.00
7888;BME280;3989;48.810;9.208;2022-07-21T03:18:41;99089.25;;;18.93;100.00
7888;BME280;3989;48.810;9.208;2022-07-21T03:21:08;99134.13;;;19.19;100.00
7888;BME280;3989;48.810;9.208;2022-07-21T03:23:36;99082.41;;;18.91;100.00
7888;BME280;3989;48.810;9.208;2022-07-21T03:26:02;99104.34;;;19.01;100.00
7888;BME280;3989;48.810;9.208;2022-07-21T03:28:29;98953.59;;;17.99;100.00
7888;BME280;3989;48.810;9.208;2022-07-21T03:30:56;99149.59;;;19.12;100.00
7888;BME280;3989;48.810;9.208;2022-07-21T03:33:22;98927.22;;;17.76;100.00
7888;BME280;3989;48.810;9.208;2022-07-21T03:35:49;99162.16;;;19.06;100.00
7888;BME280;3989;48.810;9.208;2022-07-21T03:38:16;99019.81;;;18.26;100.00
7888;BME280;3989;48.810;9.208;2022-07-21T03:40:44;99173.31;;;19.10;100.00
7888;BME280;3989;48.810;9.208;2022-07-21T03:43:10;99171.81;;;19.14;100.00
7888;BME280;3989;48.810;9.208;2022-07-21T03:45:37;99011.19;;;18.17;100.00
7888;BME280;3989;48.810;9.208;2022-07-21T03:48:05;99163.72;;;19.14;100.00
7888;BME280;3989;48.810;9.208;2022-07-21T03:50:33;98999.94;;;17.96;100.00
7888;BME280;3989;48.810;9.208;2022-07-21T03:53:00;99182.50;;;19.09;100.00
7888;BME280;3989;48.810;9.208;2022-07-21T03:55:27;99175.88;;;19.05;100.00
7888;BME280;3989;48.810;9.208;2022-07-21T03:57:57;98925.97;;;17.47;100.00
7888;BME280;3989;48.810;9.208;2022-07-21T04:00:26;99108.56;;;18.54;100.00
7888;BME280;3989;48.810;9.208;2022-07-21T04:02:53;99182.19;;;18.99;100.00
7888;BME280;3989;48.810;9.208;2022-07-21T04:05:21;99035.34;;;18.12;100.00
7888;BME280;3989;48.810;9.208;2022-07-21T04:07:51;99199.41;;;19.04;100.00
7888;BME280;3989;48.810;9.208;2022-07-21T04:10:20;99137.06;;;18.74;100.00
7888;BME280;3989;48.810;9.208;2022-07-21T04:12:47;99190.25;;;19.23;100.00
7888;BME280;3989;48.810;9.208;2022-07-21T04:15:16;99121.41;;;18.83;100.00
7888;BME280;3989;48.810;9.208;2022-07-21T04:17:43;99179.03;;;19.20;100.00
7888;BME280;3989;48.810;9.208;2022-07-21T04:20:11;99157.72;;;19.12;100.00
7888;BME280;3989;48.810;9.208;2022-07-21T04:22:39;99184.84;;;19.23;100.00
7888;BME280;3989;48.810;9.208;2022-07-21T04:25:06;99164.16;;;19.11;100.00
7888;BME280;3989;48.810;9.208;2022-07-21T04:27:34;99195.59;;;19.30;100.00
7888;BME280;3989;48.810;9.208;2022-07-21T04:30:01;99201.91;;;19.24;100.00
7888;BME280;3989;48.810;9.208;2022-07-21T04:32:29;99200.22;;;19.23;100.00
7888;BME280;3989;48.810;9.208;2022-07-21T04:34:55;99171.50;;;19.04;100.00
7888;BME280;3989;48.810;9.208;2022-07-21T04:37:22;99142.91;;;18.96;100.00
7888;BME280;3989;48.810;9.208;2022-07-21T04:39:49;99192.88;;;19.30;100.00
7888;BME280;3989;48.810;9.208;2022-07-21T04:42:16;99182.81;;;19.19;100.00
7888;BME280;3989;48.810;9.208;2022-07-21T04:44:42;99209.25;;;19.42;100.00
7888;BME280;3989;48.810;9.208;2022-07-21T04:47:09;99131.00;;;18.97;100.00
7888;BME280;3989;48.810;9.208;2022-07-21T04:49:37;99222.34;;;19.45;100.00
7888;BME280;3989;48.810;9.208;2022-07-21T04:52:04;99203.94;;;19.28;100.00
7888;BME280;3989;48.810;9.208;2022-07-21T04:54:30;99111.47;;;18.77;100.00
7888;BME280;3989;48.810;9.208;2022-07-21T04:56:57;99156.34;;;19.03;100.00
7888;BME280;3989;48.810;9.208;2022-07-21T04:59:24;99176.25;;;19.26;100.00
7888;BME280;3989;48.810;9.208;2022-07-21T05:01:51;99138.47;;;19.02;100.00
7888;BME280;3989;48.810;9.208;2022-07-21T05:04:17;99214.59;;;19.48;100.00
7888;BME280;3989;48.810;9.208;2022-07-21T05:06:45;99208.72;;;19.51;100.00
7888;BME280;3989;48.810;9.208;2022-07-21T05:09:12;99201.13;;;19.42;100.00
7888;BME280;3989;48.810;9.208;2022-07-21T05:11:39;98976.78;;;18.06;100.00
7888;BME280;3989;48.810;9.208;2022-07-21T05:14:06;99203.53;;;19.50;100.00
7888;BME280;3989;48.810;9.208;2022-07-21T05:16:33;99210.59;;;19.51;100.00
7888;BME280;3989;48.810;9.208;2022-07-21T05:18:59;99146.88;;;19.12;100.00
7888;BME280;3989;48.810;9.208;2022-07-21T05:21:26;99039.34;;;18.28;100.00
7888;BME280;3989;48.810;9.208;2022-07-21T05:23:54;99167.38;;;19.01;100.00
7888;BME280;3989;48.810;9.208;2022-07-21T05:26:21;99195.97;;;19.15;100.00
7888;BME280;3989;48.810;9.208;2022-07-21T05:28:48;99216.78;;;19.15;100.00
7888;BME280;3989;48.810;9.208;2022-07-21T05:31:14;99112.09;;;18.54;100.00
7888;BME280;3989;48.810;9.208;2022-07-21T05:33:41;99216.03;;;19.26;100.00
7888;BME280;3989;48.810;9.208;2022-07-21T05:36:08;99192.69;;;19.07;100.00
7888;BME280;3989;48.810;9.208;2022-07-21T05:38:34;99221.94;;;19.41;100.00
7888;BME280;3989;48.810;9.208;2022-07-21T05:41:03;99188.63;;;19.22;100.00
7888;BME280;3989;48.810;9.208;2022-07-21T05:43:30;99123.47;;;18.81;100.00
7888;BME280;3989;48.810;9.208;2022-07-21T05:45:56;99229.16;;;19.47;100.00
7888;BME280;3989;48.810;9.208;2022-07-21T05:48:23;99221.56;;;19.56;100.00
7888;BME280;3989;48.810;9.208;2022-07-21T05:50:50;99124.25;;;18.88;100.00
7888;BME280;3989;48.810;9.208;2022-07-21T05:53:17;99229.53;;;19.69;100.00
7888;BME280;3989;48.810;9.208;2022-07-21T05:55:46;99196.38;;;19.73;100.00
7888;BME280;3989;48.810;9.208;2022-07-21T05:58:14;99231.00;;;20.19;100.00
7888;BME280;3989;48.810;9.208;2022-07-21T06:00:41;99198.13;;;19.98;100.00
7888;BME280;3989;48.810;9.208;2022-07-21T06:03:07;99203.16;;;19.94;100.00
7888;BME280;3989;48.810;9.208;2022-07-21T06:05:34;99196.88;;;19.82;100.00
7888;BME280;3989;48.810;9.208;2022-07-21T06:08:01;99180.34;;;19.72;100.00
7888;BME280;3989;48.810;9.208;2022-07-21T06:10:27;99256.28;;;20.31;100.00
7888;BME280;3989;48.810;9.208;2022-07-21T06:12:54;99243.31;;;20.33;100.00
7888;BME280;3989;48.810;9.208;2022-07-21T06:15:22;99210.69;;;20.40;100.00
7888;BME280;3989;48.810;9.208;2022-07-21T06:17:49;99180.75;;;20.17;100.00
7888;BME280;3989;48.810;9.208;2022-07-21T06:20:16;99241.41;;;20.64;100.00
7888;BME280;3989;48.810;9.208;2022-07-21T06:22:43;99240.94;;;20.67;100.00
7888;BME280;3989;48.810;9.208;2022-07-21T06:25:10;99247.22;;;20.90;100.00
7888;BME280;3989;48.810;9.208;2022-07-21T06:27:36;99240.16;;;20.89;100.00
7888;BME280;3989;48.810;9.208;2022-07-21T06:30:05;99265.75;;;21.05;100.00
7888;BME280;3989;48.810;9.208;2022-07-21T06:32:33;99248.91;;;21.03;100.00
7888;BME280;3989;48.810;9.208;2022-07-21T06:35:00;99263.78;;;21.24;100.00
7888;BME280;3989;48.810;9.208;2022-07-21T06:37:26;99273.56;;;21.13;100.00
7888;BME280;3989;48.810;9.208;2022-07-21T06:39:53;99278.38;;;20.58;100.00
7888;BME280;3989;48.810;9.208;2022-07-21T06:42:19;99275.75;;;20.40;100.00
7888;BME280;3989;48.810;9.208;2022-07-21T06:44:46;99277.53;;;19.98;100.00
7888;BME280;3989;48.810;9.208;2022-07-21T06:47:13;99272.78;;;19.75;100.00
7888;BME280;3989;48.810;9.208;2022-07-21T06:49:41;99210.53;;;19.32;100.00
7888;BME280;3989;48.810;9.208;2022-07-21T06:52:07;99209.28;;;19.35;100.00
7888;BME280;3989;48.810;9.208;2022-07-21T06:54:34;99264.97;;;19.67;100.00
7888;BME280;3989;48.810;9.208;2022-07-21T06:57:01;99272.78;;;19.75;100.00
7888;BME280;3989;48.810;9.208;2022-07-21T06:59:27;99256.94;;;19.61;100.00
7888;BME280;3989;48.810;9.208;2022-07-21T07:01:54;99277.69;;;20.03;100.00
7888;BME280;3989;48.810;9.208;2022-07-21T07:04:21;99271.47;;;20.14;100.00
7888;BME280;3989;48.810;9.208;2022-07-21T07:06:49;99273.50;;;20.19;100.00
7888;BME280;3989;48.810;9.208;2022-07-21T07:09:18;99229.00;;;20.26;100.00
7888;BME280;3989;48.810;9.208;2022-07-21T07:11:44;99264.63;;;20.71;100.00
7888;BME280;3989;48.810;9.208;2022-07-21T07:14:13;99269.44;;;21.11;100.00
7888;BME280;3989;48.810;9.208;2022-07-21T07:16:39;99249.66;;;21.22;100.00
7888;BME280;3989;48.810;9.208;2022-07-21T07:19:06;99258.25;;;21.30;100.00
7888;BME280;3989;48.810;9.208;2022-07-21T07:21:33;99288.09;;;21.77;100.00
7888;BME280;3989;48.810;9.208;2022-07-21T07:24:01;99202.88;;;21.55;100.00
7888;BME280;3989;48.810;9.208;2022-07-21T07:26:28;99282.41;;;22.30;100.00
7888;BME280;3989;48.810;9.208;2022-07-21T07:28:54;99277.03;;;22.46;100.00
7888;BME280;3989;48.810;9.208;2022-07-21T07:31:21;99287.03;;;22.86;100.00
7888;BME280;3989;48.810;9.208;2022-07-21T07:33:48;99287.28;;;23.01;100.00
7888;BME280;3989;48.810;9.208;2022-07-21T07:36:14;99280.72;;;22.97;100.00
7888;BME280;3989;48.810;9.208;2022-07-21T07:38:41;99202.56;;;22.64;100.00
7888;BME280;3989;48.810;9.208;2022-07-21T07:41:09;99286.56;;;23.22;100.00
7888;BME280;3989;48.810;9.208;2022-07-21T07:43:35;99244.22;;;22.98;100.00
7888;BME280;3989;48.810;9.208;2022-07-21T07:46:02;99293.06;;;23.21;100.00
7888;BME280;3989;48.810;9.208;2022-07-21T07:48:30;99288.69;;;23.53;100.00
7888;BME280;3989;48.810;9.208;2022-07-21T07:50:56;99286.97;;;23.86;100.00
7888;BME280;3989;48.810;9.208;2022-07-21T07:53:23;99287.13;;;24.18;100.00
7888;BME280;3989;48.810;9.208;2022-07-21T07:55:49;99282.34;;;24.51;100.00
7888;BME280;3989;48.810;9.208;2022-07-21T07:58:17;99287.66;;;24.90;100.00
7888;BME280;3989;48.810;9.208;2022-07-21T08:00:44;99277.50;;;25.17;100.00
7888;BME280;3989;48.810;9.208;2022-07-21T08:03:10;99262.69;;;25.08;100.00
7888;BME280;3989;48.810;9.208;2022-07-21T08:05:37;99281.94;;;25.23;100.00
7888;BME280;3989;48.810;9.208;2022-07-21T08:08:04;99284.31;;;25.15;100.00
7888;BME280;3989;48.810;9.208;2022-07-21T08:10:31;99291.97;;;25.18;100.00
7888;BME280;3989;48.810;9.208;2022-07-21T08:12:58;99288.16;;;25.50;100.00
7888;BME280;3989;48.810;9.208;2022-07-21T08:15:26;99267.88;;;25.88;100.00
7888;BME280;3989;48.810;9.208;2022-07-21T08:17:53;99287.84;;;26.46;100.00
7888;BME280;3989;48.810;9.208;2022-07-21T08:20:20;99275.19;;;26.35;96.81
7888;BME280;3989;48.810;9.208;2022-07-21T08:22:46;99298.41;;;26.22;86.53
7888;BME280;3989;48.810;9.208;2022-07-21T08:25:13;99296.25;;;25.77;92.97
7888;BME280;3989;48.810;9.208;2022-07-21T08:27:39;99239.91;;;25.29;97.66
7888;BME280;3989;48.810;9.208;2022-07-21T08:30:08;99283.47;;;25.46;100.00
7888;BME280;3989;48.810;9.208;2022-07-21T08:32:37;99296.44;;;25.29;100.00
7888;BME280;3989;48.810;9.208;2022-07-21T08:35:04;99295.81;;;25.17;99.48
7888;BME280;3989;48.810;9.208;2022-07-21T08:37:33;99237.72;;;24.94;97.88
7888;BME280;3989;48.810;9.208;2022-07-21T08:40:00;99146.97;;;24.19;98.17
7888;BME280;3989;48.810;9.208;2022-07-21T08:42:27;99287.69;;;25.27;100.00
7888;BME280;3989;48.810;9.208;2022-07-21T08:44:54;99269.59;;;25.21;93.78
7888;BME280;3989;48.810;9.208;2022-07-21T08:47:21;99292.03;;;25.54;92.46
7888;BME280;3989;48.810;9.208;2022-07-21T08:49:49;99257.94;;;25.67;84.47
7888;BME280;3989;48.810;9.208;2022-07-21T08:52:16;99285.78;;;25.64;89.95
7888;BME280;3989;48.810;9.208;2022-07-21T08:54:43;99195.06;;;24.88;95.30
7888;BME280;3989;48.810;9.208;2022-07-21T08:57:10;99181.00;;;24.43;97.60
7888;BME280;3989;48.810;9.208;2022-07-21T08:59:36;99280.59;;;24.94;95.37
7888;BME280;3989;48.810;9.208;2022-07-21T09:02:03;99270.09;;;24.81;92.51
7888;BME280;3989;48.810;9.208;2022-07-21T09:04:32;99252.63;;;24.82;92.46
7888;BME280;3989;48.810;9.208;2022-07-21T09:07:01;99222.19;;;24.68;89.82
7888;BME280;3989;48.810;9.208;2022-07-21T09:09:30;99281.66;;;25.25;89.65
7888;BME280;3989;48.810;9.208;2022-07-21T09:11:57;99286.97;;;25.41;90.33
7888;BME280;3989;48.810;9.208;2022-07-21T09:14:25;99272.25;;;25.47;85.56
7888;BME280;3989;48.810;9.208;2022-07-21T09:16:53;99284.47;;;25.72;87.69
7888;BME280;3989;48.810;9.208;2022-07-21T09:19:22;99276.94;;;25.94;73.98
7888;BME280;3989;48.810;9.208;2022-07-21T09:21:51;99239.97;;;25.86;76.52
7888;BME280;3989;48.810;9.208;2022-07-21T09:24:23;99218.69;;;25.93;75.64
7888;BME280;3989;48.810;9.208;2022-07-21T09:27:05;99277.94;;;26.35;73.97
7888;BME280;3989;48.810;9.208;2022-07-21T09:29:36;99162.66;;;25.39;70.95
7888;BME280;3989;48.810;9.208;2022-07-21T09:32:21;99253.94;;;25.95;67.00
7888;BME280;3989;48.810;9.208;2022-07-21T09:34:50;99275.69;;;26.17;71.74
7888;BME280;3989;48.810;9.208;2022-07-21T09:37:19;99217.72;;;26.20;71.10
7888;BME280;3989;48.810;9.208;2022-07-21T09:39:49;99230.09;;;26.57;66.41
7888;BME280;3989;48.810;9.208;2022-07-21T09:42:19;99270.69;;;26.96;59.64
7888;BME280;3989;48.810;9.208;2022-07-21T09:44:49;99190.13;;;26.61;60.31
7888;BME280;3989;48.810;9.208;2022-07-21T09:47:18;99257.81;;;27.27;58.90
7888;BME280;3989;48.810;9.208;2022-07-21T09:49:45;99250.66;;;27.56;57.04
7888;BME280;3989;48.810;9.208;2022-07-21T09:52:22;99249.16;;;27.89;52.16
7888;BME280;3989;48.810;9.208;2022-07-21T09:54:51;99262.28;;;28.17;51.90
7888;BME280;3989;48.810;9.208;2022-07-21T09:57:19;99263.94;;;28.62;48.31
7888;BME280;3989;48.810;9.208;2022-07-21T09:59:47;99267.75;;;29.05;47.32
7888;BME280;3989;48.810;9.208;2022-07-21T10:02:16;99270.28;;;28.96;45.89
7888;BME280;3989;48.810;9.208;2022-07-21T10:04:45;99228.91;;;28.83;46.63
7888;BME280;3989;48.810;9.208;2022-07-21T10:07:14;99260.44;;;29.29;46.67
7888;BME280;3989;48.810;9.208;2022-07-21T10:09:42;99227.00;;;29.69;45.20
7888;BME280;3989;48.810;9.208;2022-07-21T10:12:11;99174.41;;;29.52;44.05
7888;BME280;3989;48.810;9.208;2022-07-21T10:14:38;99244.50;;;30.26;43.87
7888;BME280;3989;48.810;9.208;2022-07-21T10:17:04;99175.09;;;29.63;43.60
7888;BME280;3989;48.810;9.208;2022-07-21T10:19:36;99253.63;;;30.21;44.01
7888;BME280;3989;48.810;9.208;2022-07-21T10:22:09;99212.88;;;29.29;44.44
7888;BME280;3989;48.810;9.208;2022-07-21T10:24:40;99254.22;;;28.80;49.52
7888;BME280;3989;48.810;9.208;2022-07-21T10:27:09;99256.84;;;27.97;54.56
7888;BME280;3989;48.810;9.208;2022-07-21T10:29:51;99242.16;;;27.27;58.58
7888;BME280;3989;48.810;9.208;2022-07-21T10:32:20;99242.44;;;26.65;61.83
7888;BME280;3989;48.810;9.208;2022-07-21T10:34:47;99242.97;;;26.72;61.81
7888;BME280;3989;48.810;9.208;2022-07-21T10:37:45;99225.75;;;26.72;57.69
7888;BME280;3989;48.810;9.208;2022-07-21T10:40:37;99240.00;;;26.94;56.97
7888;BME280;3989;48.810;9.208;2022-07-21T10:43:39;99240.28;;;27.23;55.42
7888;BME280;3989;48.810;9.208;2022-07-21T10:49:45;99232.84;;;27.48;54.05
7888;BME280;3989;48.810;9.208;2022-07-21T10:55:19;99167.44;;;27.86;48.79
7888;BME280;3989;48.810;9.208;2022-07-21T10:58:16;99232.31;;;28.70;50.04
7888;BME280;3989;48.810;9.208;2022-07-21T11:00:48;99194.97;;;28.25;50.32
7888;BME280;3989;48.810;9.208;2022-07-21T11:03:19;99203.72;;;28.32;50.05
7888;BME280;3989;48.810;9.208;2022-07-21T11:06:16;99231.13;;;27.78;49.94
7888;BME280;3989;48.810;9.208;2022-07-21T11:08:46;99234.75;;;27.58;50.35
7888;BME280;3989;48.810;9.208;2022-07-21T11:11:14;99233.66;;;27.44;49.20
7888;BME280;3989;48.810;9.208;2022-07-21T11:14:07;99224.34;;;27.40;50.52
7888;BME280;3989;48.810;9.208;2022-07-21T11:17:12;99204.91;;;27.21;49.72
7888;BME280;3989;48.810;9.208;2022-07-21T11:19:50;99194.88;;;27.86;48.37
7888;BME280;3989;48.810;9.208;2022-07-21T11:22:20;99216.66;;;28.70;44.99
7888;BME280;3989;48.810;9.208;2022-07-21T11:24:51;99215.31;;;29.01;44.08
7888;BME280;3989;48.810;9.208;2022-07-21T11:27:19;99161.81;;;28.89;42.45
7888;BME280;3989;48.810;9.208;2022-07-21T11:29:48;99215.59;;;29.57;41.97
7888;BME280;3989;48.810;9.208;2022-07-21T11:32:15;99120.03;;;29.21;40.54
7888;BME280;3989;48.810;9.208;2022-07-21T11:34:45;99204.31;;;29.59;41.22
7888;BME280;3989;48.810;9.208;2022-07-21T11:37:13;99209.38;;;29.47;40.49
7888;BME280;3989;48.810;9.208;2022-07-21T11:39:43;99158.75;;;28.95;41.19
7888;BME280;3989;48.810;9.208;2022-07-21T11:42:11;99167.97;;;29.09;40.49
7888;BME280;3989;48.810;9.208;2022-07-21T11:44:39;99209.31;;;29.28;40.26
7888;BME280;3989;48.810;9.208;2022-07-21T11:47:09;99203.53;;;29.53;39.96
7888;BME280;3989;48.810;9.208;2022-07-21T11:49:37;99209.16;;;29.43;40.62
7888;BME280;3989;48.810;9.208;2022-07-21T11:52:06;99205.72;;;29.28;41.13
7888;BME280;3989;48.810;9.208;2022-07-21T11:54:35;99145.56;;;29.21;41.54
7888;BME280;3989;48.810;9.208;2022-07-21T11:57:05;99161.34;;;29.63;40.94
7888;BME280;3989;48.810;9.208;2022-07-21T11:59:33;99194.34;;;30.10;39.25
7888;BME280;3989;48.810;9.208;2022-07-21T12:02:03;99186.91;;;29.63;39.29
7888;BME280;3989;48.810;9.208;2022-07-21T12:04:33;99094.97;;;28.98;40.32
7888;BME280;3989;48.810;9.208;2022-07-21T12:07:01;99120.59;;;28.94;39.87
7888;BME280;3989;48.810;9.208;2022-07-21T12:09:28;99185.66;;;29.56;39.72
7888;BME280;3989;48.810;9.208;2022-07-21T12:11:55;99078.47;;;29.27;38.97
7888;BME280;3989;48.810;9.208;2022-07-21T12:14:42;99180.94;;;30.23;38.46
7888;BME280;3989;48.810;9.208;2022-07-21T12:17:09;99185.91;;;30.77;38.45
7888;BME280;3989;48.810;9.208;2022-07-21T12:19:36;99185.94;;;30.58;38.81
7888;BME280;3989;48.810;9.208;2022-07-21T12:22:03;99163.59;;;30.03;38.98
7888;BME280;3989;48.810;9.208;2022-07-21T12:24:52;99116.47;;;29.20;40.28
7888;BME280;3989;48.810;9.208;2022-07-21T12:27:19;99178.97;;;29.38;41.52
7888;BME280;3989;48.810;9.208;2022-07-21T12:29:47;99164.19;;;28.72;42.20
7888;BME280;3989;48.810;9.208;2022-07-21T12:32:20;99191.84;;;28.85;43.23
7888;BME280;3989;48.810;9.208;2022-07-21T12:35:01;99202.00;;;28.46;44.81
7888;BME280;3989;48.810;9.208;2022-07-21T12:37:57;99198.69;;;28.44;44.73
7888;BME280;3989;48.810;9.208;2022-07-21T12:40:25;99190.00;;;28.76;45.54
7888;BME280;3989;48.810;9.208;2022-07-21T12:43:06;99189.44;;;28.74;44.31
7888;BME280;3989;48.810;9.208;2022-07-21T12:45:48;99194.72;;;28.99;44.54
7888;BME280;3989;48.810;9.208;2022-07-21T12:48:17;99193.38;;;29.25;43.02
7888;BME280;3989;48.810;9.208;2022-07-21T12:51:01;99201.88;;;29.29;42.78
7888;BME280;3989;48.810;9.208;2022-07-21T12:53:29;99189.78;;;29.30;43.21
7888;BME280;3989;48.810;9.208;2022-07-21T12:55:56;99106.84;;;28.94;43.33
7888;BME280;3989;48.810;9.208;2022-07-21T12:58:23;99181.47;;;29.58;43.37
7888;BME280;3989;48.810;9.208;2022-07-21T13:00:51;99189.09;;;29.90;42.14
7888;BME280;3989;48.810;9.208;2022-07-21T13:03:18;99164.84;;;29.92;42.09
7888;BME280;3989;48.810;9.208;2022-07-21T13:05:45;99185.34;;;30.05;41.68
7888;BME280;3989;48.810;9.208;2022-07-21T13:08:11;99114.81;;;29.66;42.67
7888;BME280;3989;48.810;9.208;2022-07-21T13:10:38;99176.91;;;30.15;42.11
7888;BME280;3989;48.810;9.208;2022-07-21T13:13:04;99172.38;;;30.05;41.86
7888;BME280;3989;48.810;9.208;2022-07-21T13:15:31;99139.78;;;29.94;41.48
7888;BME280;3989;48.810;9.208;2022-07-21T13:17:59;99182.59;;;30.42;41.29
7888;BME280;3989;48.810;9.208;2022-07-21T13:20:26;99065.75;;;29.55;41.63
7888;BME280;3989;48.810;9.208;2022-07-21T13:22:52;99048.91;;;29.38;41.82
7888;BME280;3989;48.810;9.208;2022-07-21T13:25:19;99160.84;;;30.22;41.66
7888;BME280;3989;48.810;9.208;2022-07-21T13:27:46;99180.19;;;29.98;42.03